Time;durP1;ratioP1;P1;durP2;ratioP2;P2;SDS_P1;SDS_P2;PMS_P1;PMS_P2;Temp;Humidity;BMP_temperature;BMP_pressure;BME280_temperature;BME280_humidity;BME280_pressure;Samples;Min_cycle;Max_cycle;Signal;HPM_P1;HPM_P2
2021/03/30 00:01:19;;;;;;;12.05;5.68;;;6.30;70.60;;;;;;6304099;28;20067;-76
2021/03/30 00:04:20;;;;;;;3.83;3.08;;;6.30;71.20;;;;;;6296952;28;20140;-77
2021/03/30 00:07:21;;;;;;;4.97;2.95;;;6.30;71.00;;;;;;6295828;28;20127;-77
2021/03/30 00:10:31;;;;;;;5.25;3.80;;;6.30;71.20;;;;;;6293910;28;20053;-77
2021/03/30 00:13:32;;;;;;;5.40;3.53;;;6.30;71.70;;;;;;6293379;28;20049;-76
2021/03/30 00:16:33;;;;;;;6.78;4.05;;;6.20;71.40;;;;;;6277595;28;20047;-76
2021/03/30 00:19:35;;;;;;;5.38;3.63;;;6.20;71.90;;;;;;6270472;28;20076;-77
2021/03/30 00:22:36;;;;;;;4.00;2.90;;;6.20;71.40;;;;;;6271903;28;20482;-77
2021/03/30 00:25:38;;;;;;;4.40;3.78;;;6.10;72.40;;;;;;6296432;28;20051;-76
2021/03/30 00:28:40;;;;;;;7.70;3.42;;;5.90;72.30;;;;;;6295695;28;20071;-78
2021/03/30 00:31:41;;;;;;;4.45;3.72;;;5.80;72.60;;;;;;6295162;28;20127;-77
2021/03/30 00:34:42;;;;;;;4.78;3.60;;;5.80;72.80;;;;;;6297095;28;20053;-77
2021/03/30 00:37:44;;;;;;;3.35;3.05;;;5.70;73.10;;;;;;6295674;28;20589;-77
2021/03/30 00:40:46;;;;;;;2.65;2.45;;;5.70;73.10;;;;;;6295032;28;20051;-76
2021/03/30 00:43:47;;;;;;;9.77;4.50;;;5.60;72.70;;;;;;6295215;28;20072;-76
2021/03/30 00:46:50;;;;;;;3.40;3.00;;;5.50;73.30;;;;;;6296862;28;20513;-78
2021/03/30 00:49:52;;;;;;;5.30;3.38;;;5.50;72.40;;;;;;6299955;28;20124;-78
2021/03/30 00:52:53;;;;;;;4.03;2.80;;;5.50;72.40;;;;;;6299086;28;20127;-77
2021/03/30 00:55:56;;;;;;;5.13;3.63;;;5.50;72.50;;;;;;6299028;28;20052;-77
2021/03/30 00:59:00;;;;;;;4.95;3.33;;;5.50;72.90;;;;;;6298489;28;20071;-77
2021/03/30 01:02:01;;;;;;;5.22;3.70;;;5.40;72.80;;;;;;6299536;28;20563;-78
2021/03/30 01:05:03;;;;;;;6.03;3.90;;;5.40;72.90;;;;;;6302357;28;20068;-77
2021/03/30 01:08:36;;;;;;;4.43;2.92;;;5.40;73.40;;;;;;6302932;28;20048;-78
2021/03/30 01:11:49;;;;;;;7.43;3.63;;;5.40;73.40;;;;;;6302198;28;20064;-78
2021/03/30 01:15:02;;;;;;;3.78;2.50;;;5.30;73.50;;;;;;6302874;28;20417;-78
2021/03/30 01:18:12;;;;;;;4.60;4.07;;;5.20;73.40;;;;;;6282944;28;20056;-78
2021/03/30 01:21:31;;;;;;;6.60;3.35;;;5.10;73.30;;;;;;6280957;28;20033;-78
2021/03/30 01:24:35;;;;;;;6.35;3.38;;;5.10;73.40;;;;;;6281112;28;20533;-78
2021/03/30 01:27:48;;;;;;;4.65;3.72;;;5.00;73.50;;;;;;6280538;28;20060;-78
2021/03/30 01:30:52;;;;;;;4.93;3.05;;;4.90;73.70;;;;;;6282665;28;20132;-78
2021/03/30 01:33:54;;;;;;;7.18;3.55;;;4.90;74.10;;;;;;6280756;28;20147;-77
2021/03/30 01:36:59;;;;;;;4.05;3.22;;;4.80;74.00;;;;;;6280916;28;20060;-78
2021/03/30 01:40:02;;;;;;;3.90;2.70;;;4.80;74.30;;;;;;6279776;28;20113;-77
2021/03/30 01:43:07;;;;;;;5.78;4.13;;;4.80;74.20;;;;;;6280866;28;20505;-77
2021/03/30 01:46:10;;;;;;;7.13;3.65;;;4.80;74.00;;;;;;6282530;28;20100;-77
2021/03/30 01:49:13;;;;;;;6.05;3.75;;;4.80;74.10;;;;;;6281805;28;20052;-77
2021/03/30 01:52:16;;;;;;;4.70;3.30;;;4.80;75.10;;;;;;6282037;28;20654;-78
2021/03/30 01:55:18;;;;;;;5.03;2.90;;;4.80;74.80;;;;;;6280215;28;20143;-78
2021/03/30 01:58:21;;;;;;;6.18;4.18;;;4.70;74.60;;;;;;6280051;28;20056;-77
2021/03/30 02:01:23;;;;;;;6.13;3.10;;;4.70;74.70;;;;;;6278360;28;20124;-77
2021/03/30 02:04:26;;;;;;;7.22;3.88;;;4.60;74.80;;;;;;6278853;28;20065;-78
2021/03/30 02:07:28;;;;;;;5.03;3.65;;;4.60;74.80;;;;;;6279217;28;20045;-77
2021/03/30 02:10:34;;;;;;;5.28;2.63;;;4.50;75.00;;;;;;6297627;28;20539;-77
2021/03/30 02:13:41;;;;;;;5.22;3.45;;;4.50;75.20;;;;;;6304475;28;20059;-76
2021/03/30 02:16:51;;;;;;;7.80;4.53;;;4.50;75.20;;;;;;6303924;28;20048;-77
2021/03/30 02:20:02;;;;;;;4.88;3.20;;;4.50;75.20;;;;;;6299678;28;20041;-77
2021/03/30 02:23:09;;;;;;;3.60;3.20;;;4.40;75.40;;;;;;6304715;28;20052;-78
2021/03/30 02:26:13;;;;;;;4.38;3.97;;;4.40;75.70;;;;;;6308224;28;20082;-77
2021/03/30 02:29:18;;;;;;;5.88;4.00;;;4.40;75.80;;;;;;6307208;28;20437;-78
2021/03/30 02:32:22;;;;;;;7.05;4.20;;;4.30;76.20;;;;;;6306399;28;20079;-78
2021/03/30 02:35:26;;;;;;;5.80;3.42;;;4.30;76.40;;;;;;6307089;28;20048;-78
2021/03/30 02:38:31;;;;;;;4.45;3.15;;;4.30;76.40;;;;;;6305876;28;20072;-78
2021/03/30 02:41:34;;;;;;;8.30;3.78;;;4.20;76.20;;;;;;6304222;28;20151;-76
2021/03/30 02:44:37;;;;;;;7.68;4.97;;;4.10;76.80;;;;;;6303892;28;20062;-77
2021/03/30 02:47:41;;;;;;;5.97;3.97;;;4.10;77.30;;;;;;6303298;28;20127;-78
2021/03/30 02:50:43;;;;;;;5.18;4.47;;;4.10;77.00;;;;;;6301585;28;20199;-77
2021/03/30 02:53:45;;;;;;;3.83;3.40;;;4.00;76.90;;;;;;6302881;28;20045;-78
2021/03/30 02:56:47;;;;;;;6.78;4.13;;;4.00;77.10;;;;;;6299718;28;20132;-77
2021/03/30 02:59:49;;;;;;;7.85;3.67;;;4.00;77.40;;;;;;6299005;28;20059;-77
2021/03/30 03:02:55;;;;;;;4.35;3.67;;;3.90;77.60;;;;;;6298953;28;20127;-77
2021/03/30 03:05:56;;;;;;;3.95;3.42;;;3.80;77.30;;;;;;6300637;28;20090;-76
2021/03/30 03:08:59;;;;;;;5.65;3.75;;;3.80;77.50;;;;;;6301896;28;20545;-77
2021/03/30 03:12:01;;;;;;;5.25;3.60;;;3.70;77.90;;;;;;6303325;28;20075;-76
2021/03/30 03:15:04;;;;;;;8.80;3.40;;;3.70;78.20;;;;;;6299891;28;20135;-77
2021/03/30 03:18:08;;;;;;;4.10;3.70;;;3.70;78.30;;;;;;6301687;28;20124;-77
2021/03/30 03:21:11;;;;;;;4.53;3.78;;;3.70;78.60;;;;;;6299826;28;20108;-77
2021/03/30 03:24:13;;;;;;;4.23;3.83;;;3.60;79.00;;;;;;6302089;28;20563;-77
2021/03/30 03:27:15;;;;;;;5.05;3.38;;;3.60;78.60;;;;;;6302471;28;20072;-77
2021/03/30 03:30:18;;;;;;;6.03;3.58;;;3.50;79.20;;;;;;6305532;28;20071;-78
2021/03/30 03:33:20;;;;;;;9.43;3.60;;;3.40;79.70;;;;;;6305660;28;20055;-78
2021/03/30 03:36:22;;;;;;;8.40;4.57;;;3.40;79.70;;;;;;6305842;28;20041;-78
2021/03/30 03:39:23;;;;;;;8.40;4.37;;;3.30;79.50;;;;;;6306789;28;20040;-77
2021/03/30 03:42:24;;;;;;;4.13;3.40;;;3.30;79.50;;;;;;6307760;28;20433;-78
2021/03/30 03:45:26;;;;;;;6.97;3.63;;;3.20;79.60;;;;;;6305816;28;20045;-78
2021/03/30 03:48:29;;;;;;;7.10;4.27;;;3.20;79.90;;;;;;6307603;28;20051;-77
2021/03/30 03:51:34;;;;;;;5.90;3.73;;;3.20;79.90;;;;;;6307411;28;20105;-78
2021/03/30 03:54:37;;;;;;;4.00;3.10;;;3.20;80.10;;;;;;6308395;28;20143;-76
2021/03/30 03:57:45;;;;;;;5.13;3.50;;;3.30;79.90;;;;;;6305691;28;20044;-78
2021/03/30 04:00:46;;;;;;;8.98;4.50;;;3.30;79.90;;;;;;6306227;28;20048;-77
2021/03/30 04:03:51;;;;;;;7.50;3.30;;;3.20;79.90;;;;;;6307921;28;20055;-78
2021/03/30 04:06:56;;;;;;;6.40;3.30;;;3.20;80.10;;;;;;6306472;28;20048;-77
2021/03/30 04:10:02;;;;;;;5.30;3.33;;;3.10;80.40;;;;;;6305990;28;20044;-78
2021/03/30 04:13:05;;;;;;;5.17;3.83;;;3.10;80.30;;;;;;6307460;28;20075;-77
2021/03/30 04:16:07;;;;;;;4.10;3.67;;;3.00;80.40;;;;;;6304638;28;20052;-77
2021/03/30 04:19:10;;;;;;;3.93;3.53;;;3.00;81.00;;;;;;6301759;28;20048;-77
2021/03/30 04:22:13;;;;;;;4.30;3.90;;;3.00;80.90;;;;;;6297977;28;20072;-79
2021/03/30 04:25:14;;;;;;;7.00;4.30;;;2.90;81.10;;;;;;6304024;28;20056;-80
2021/03/30 04:28:15;;;;;;;4.17;3.20;;;2.90;81.40;;;;;;6306097;28;20064;-79
2021/03/30 04:31:17;;;;;;;4.90;3.43;;;2.80;81.50;;;;;;6305142;28;20056;-79
2021/03/30 04:34:19;;;;;;;9.20;5.30;;;2.80;81.60;;;;;;6304370;28;20136;-79
2021/03/30 04:37:20;;;;;;;4.63;4.07;;;2.80;81.80;;;;;;6302691;28;20048;-79
2021/03/30 04:40:23;;;;;;;5.83;3.87;;;2.80;81.60;;;;;;6299089;28;20060;-78
2021/03/30 04:43:24;;;;;;;3.63;2.97;;;2.70;81.30;;;;;;6298889;28;20044;-76
2021/03/30 04:46:25;;;;;;;3.97;3.40;;;2.70;81.40;;;;;;6299855;28;20114;-75
2021/03/30 04:49:28;;;;;;;6.73;3.90;;;2.60;81.60;;;;;;6298545;28;20120;-77
2021/03/30 04:52:29;;;;;;;9.97;4.00;;;2.60;81.70;;;;;;6300937;28;20643;-77
2021/03/30 04:55:30;;;;;;;4.30;3.70;;;2.50;81.80;;;;;;6302231;28;20113;-78
2021/03/30 04:58:32;;;;;;;7.23;3.60;;;2.60;81.80;;;;;;6305863;28;20055;-78
2021/03/30 05:01:33;;;;;;;3.80;3.50;;;2.50;82.00;;;;;;6304891;28;20425;-78
2021/03/30 05:04:35;;;;;;;5.80;3.87;;;2.60;82.10;;;;;;6307964;28;20044;-77
2021/03/30 05:07:37;;;;;;;14.67;4.10;;;2.50;82.10;;;;;;6308495;28;20128;-78
2021/03/30 05:10:38;;;;;;;5.53;4.00;;;2.50;82.30;;;;;;6307336;28;20136;-78
2021/03/30 05:13:39;;;;;;;5.13;4.00;;;2.60;82.50;;;;;;6306692;28;20128;-78
2021/03/30 05:16:41;;;;;;;5.77;3.83;;;2.60;82.50;;;;;;6305317;28;20044;-78
2021/03/30 05:19:43;;;;;;;4.37;3.57;;;2.60;82.10;;;;;;6302364;28;20154;-78
2021/03/30 05:22:44;;;;;;;8.07;3.80;;;2.60;82.00;;;;;;6301454;28;20131;-79
2021/03/30 05:25:45;;;;;;;6.80;4.53;;;2.60;82.40;;;;;;6307189;28;20056;-76
2021/03/30 05:28:47;;;;;;;5.33;3.83;;;2.60;82.40;;;;;;6303519;28;20069;-77
2021/03/30 05:31:48;;;;;;;7.13;4.40;;;2.60;82.60;;;;;;6304203;28;20121;-76
2021/03/30 05:34:54;;;;;;;8.87;4.90;;;2.60;82.70;;;;;;6304623;28;20120;-76
2021/03/30 05:37:55;;;;;;;12.67;4.30;;;2.80;82.40;;;;;;6303953;28;20123;-78
2021/03/30 05:40:57;;;;;;;7.80;4.40;;;2.80;82.20;;;;;;6308110;28;20139;-77
2021/03/30 05:43:58;;;;;;;5.77;4.27;;;3.00;82.10;;;;;;6306287;28;20108;-78
2021/03/30 05:47:11;;;;;;;5.53;5.07;;;3.10;82.10;;;;;;6305042;28;20080;-79
2021/03/30 05:50:15;;;;;;;5.53;4.03;;;3.20;82.00;;;;;;6304916;28;20044;-78
2021/03/30 05:53:18;;;;;;;6.90;4.03;;;3.40;81.80;;;;;;6305368;28;20052;-78
2021/03/30 05:56:19;;;;;;;6.17;5.57;;;3.50;81.50;;;;;;6302435;28;20052;-77
2021/03/30 05:59:22;;;;;;;8.07;4.83;;;3.60;80.90;;;;;;6301403;28;20577;-77
2021/03/30 06:02:28;;;;;;;11.50;4.33;;;3.80;80.90;;;;;;6301563;28;20139;-78
2021/03/30 06:05:31;;;;;;;10.52;4.03;;;4.00;80.70;;;;;;6303415;28;20100;-78
2021/03/30 06:08:32;;;;;;;5.65;3.45;;;4.20;81.80;;;;;;6303494;28;20136;-78
2021/03/30 06:11:35;;;;;;;6.47;3.83;;;4.50;81.60;;;;;;6327174;28;20163;-78
2021/03/30 06:14:37;;;;;;;7.72;4.05;;;4.70;80.10;;;;;;6328952;28;20075;-78
2021/03/30 06:17:40;;;;;;;9.27;4.85;;;4.80;79.50;;;;;;6328889;28;20093;-78
2021/03/30 06:20:43;;;;;;;17.83;5.45;;;5.00;79.30;;;;;;6323851;28;20045;-78
2021/03/30 06:23:44;;;;;;;9.40;4.85;;;5.20;78.80;;;;;;6304706;28;20051;-78
2021/03/30 06:26:45;;;;;;;9.55;5.57;;;5.40;78.10;;;;;;6305255;28;20415;-79
2021/03/30 06:29:48;;;;;;;13.43;5.82;;;5.60;77.90;;;;;;6303900;28;20060;-79
2021/03/30 06:32:50;;;;;;;15.30;6.28;;;5.80;77.30;;;;;;6304659;28;20108;-78
2021/03/30 06:35:52;;;;;;;10.48;6.20;;;6.10;77.30;;;;;;6304812;28;20518;-79
2021/03/30 06:39:01;;;;;;;11.52;7.07;;;6.30;77.20;;;;;;6306457;28;20083;-79
2021/03/30 06:42:07;;;;;;;19.35;7.40;;;6.60;76.50;;;;;;6315284;28;20056;-78
2021/03/30 06:45:15;;;;;;;10.45;6.10;;;6.80;75.60;;;;;;6328126;28;20078;-77
2021/03/30 06:48:18;;;;;;;11.65;6.35;;;7.00;74.70;;;;;;6327627;28;20048;-78
2021/03/30 06:51:21;;;;;;;10.90;6.68;;;7.30;73.70;;;;;;6326939;28;20047;-78
2021/03/30 06:54:22;;;;;;;11.77;4.95;;;7.60;73.70;;;;;;6327262;28;20052;-79
2021/03/30 06:57:39;;;;;;;5.45;3.90;;;8.00;71.50;;;;;;6327003;28;20048;-78
2021/03/30 07:00:40;;;;;;;10.68;7.88;;;8.40;69.10;;;;;;6309180;28;20509;-79
2021/03/30 07:03:41;;;;;;;10.73;5.32;;;8.80;69.20;;;;;;6301010;28;20087;-79
2021/03/30 07:06:50;;;;;;;7.30;4.75;;;9.10;68.10;;;;;;6298158;28;20662;-79
2021/03/30 07:09:52;;;;;;;8.10;4.40;;;9.40;66.40;;;;;;6302782;28;20040;-77
2021/03/30 07:12:54;;;;;;;10.38;5.72;;;9.70;65.20;;;;;;6305191;28;20047;-77
2021/03/30 07:16:01;;;;;;;7.50;6.22;;;10.00;64.20;;;;;;6325164;28;20575;-78
2021/03/30 07:19:04;;;;;;;10.35;6.25;;;10.50;62.90;;;;;;6322613;28;20054;-77
2021/03/30 07:22:09;;;;;;;11.68;8.52;;;10.80;62.30;;;;;;6311631;28;20131;-77
2021/03/30 07:25:14;;;;;;;13.70;6.13;;;11.20;61.00;;;;;;6295811;28;20114;-77
2021/03/30 07:28:21;;;;;;;16.45;6.32;;;11.50;60.10;;;;;;6296723;28;20737;-77
2021/03/30 07:31:28;;;;;;;13.82;8.18;;;11.70;59.00;;;;;;6296045;28;20051;-77
2021/03/30 07:34:37;;;;;;;17.80;6.85;;;11.90;58.30;;;;;;6297015;28;20135;-77
2021/03/30 07:37:43;;;;;;;16.33;7.78;;;12.10;58.50;;;;;;6296631;28;20151;-77
2021/03/30 07:40:45;;;;;;;11.10;8.25;;;12.40;58.00;;;;;;6296731;28;20136;-77
2021/03/30 07:43:49;;;;;;;10.95;7.18;;;12.70;56.60;;;;;;6299664;28;20071;-79
2021/03/30 07:46:51;;;;;;;18.02;8.13;;;12.90;56.00;;;;;;6299944;28;20072;-78
2021/03/30 07:49:53;;;;;;;18.77;7.90;;;13.20;55.60;;;;;;6307633;28;20044;-77
2021/03/30 07:52:56;;;;;;;16.55;7.95;;;13.50;54.90;;;;;;6304323;28;20048;-80
2021/03/30 07:55:57;;;;;;;14.15;9.18;;;13.70;54.00;;;;;;6301715;28;20476;-80
2021/03/30 07:58:59;;;;;;;15.23;8.35;;;14.00;53.90;;;;;;6301745;28;20117;-79
2021/03/30 08:02:00;;;;;;;16.52;8.00;;;14.20;52.80;;;;;;6301866;28;20128;-78
2021/03/30 08:05:10;;;;;;;14.95;7.32;;;14.40;51.20;;;;;;6298929;28;20558;-78
2021/03/30 08:08:23;;;;;;;15.98;8.15;;;14.50;50.70;;;;;;6300856;28;20052;-79
2021/03/30 08:11:50;;;;;;;20.77;8.55;;;14.70;51.60;;;;;;6298956;28;20060;-79
2021/03/30 08:14:52;;;;;;;18.83;7.68;;;15.00;51.10;;;;;;6325117;28;20063;-77
2021/03/30 08:17:56;;;;;;;23.25;9.25;;;15.30;51.10;;;;;;6327890;28;20078;-78
2021/03/30 08:21:01;;;;;;;20.00;8.45;;;15.50;50.50;;;;;;6325854;28;20036;-78
2021/03/30 08:24:10;;;;;;;17.25;9.05;;;15.70;49.90;;;;;;6306612;28;20421;-78
2021/03/30 08:27:36;;;;;;;27.65;8.80;;;15.90;49.40;;;;;;6302895;28;20137;-77
2021/03/30 08:30:56;;;;;;;16.02;8.27;;;16.20;49.20;;;;;;6308543;28;20124;-77
2021/03/30 08:33:59;;;;;;;12.60;8.05;;;16.30;48.80;;;;;;6298464;28;20102;-77
2021/03/30 08:37:09;;;;;;;8.52;4.75;;;16.50;46.70;;;;;;6297691;28;20121;-77
2021/03/30 08:40:45;;;;;;;5.05;4.18;;;16.50;44.20;;;;;;6298161;28;20040;-78
2021/03/30 08:44:10;;;;;;;7.57;4.07;;;16.70;43.90;;;;;;6295645;28;20632;-77
2021/03/30 08:47:26;;;;;;;8.52;4.45;;;16.80;43.50;;;;;;6296358;28;20097;-77
2021/03/30 08:50:31;;;;;;;5.57;4.85;;;17.00;43.40;;;;;;6299200;28;20409;-77
2021/03/30 08:53:33;;;;;;;7.53;4.65;;;17.30;43.70;;;;;;6300466;28;20044;-77
2021/03/30 08:56:37;;;;;;;9.25;4.78;;;17.60;42.70;;;;;;6300714;28;20064;-77
2021/03/30 08:59:39;;;;;;;9.98;4.75;;;17.80;41.20;;;;;;6303206;28;20082;-77
2021/03/30 09:02:41;;;;;;;9.63;4.72;;;18.00;40.30;;;;;;6296272;28;20136;-77
2021/03/30 09:05:42;;;;;;;12.43;5.90;;;18.20;39.70;;;;;;6295252;28;20048;-77
2021/03/30 09:08:44;;;;;;;10.65;4.50;;;18.30;39.50;;;;;;6296874;28;20421;-77
2021/03/30 09:11:46;;;;;;;10.52;5.45;;;18.50;39.60;;;;;;6297020;28;20080;-78
2021/03/30 09:14:48;;;;;;;11.88;6.40;;;18.80;39.40;;;;;;6318324;28;20052;-77
2021/03/30 09:17:57;;;;;;;10.55;6.13;;;19.00;38.50;;;;;;6325970;28;20114;-78
2021/03/30 09:21:09;;;;;;;13.52;7.32;;;19.10;39.30;;;;;;6326469;28;20127;-77
2021/03/30 09:24:16;;;;;;;15.63;6.57;;;19.30;39.10;;;;;;6309902;28;20078;-77
2021/03/30 09:27:22;;;;;;;12.52;6.13;;;19.40;39.30;;;;;;6295955;28;20505;-77
2021/03/30 09:30:25;;;;;;;11.70;6.47;;;19.60;39.30;;;;;;6295882;28;20056;-77
2021/03/30 09:33:26;;;;;;;19.10;5.43;;;19.70;38.70;;;;;;6297018;28;20474;-78
2021/03/30 09:36:28;;;;;;;11.13;7.55;;;19.90;38.80;;;;;;6296761;28;20137;-78
2021/03/30 09:39:29;;;;;;;12.05;6.28;;;20.00;38.40;;;;;;6296259;28;20048;-78
2021/03/30 09:42:32;;;;;;;21.05;7.07;;;20.10;37.60;;;;;;6299126;28;20079;-77
2021/03/30 09:45:36;;;;;;;24.40;7.47;;;20.20;38.80;;;;;;6299927;28;20500;-77
2021/03/30 09:48:38;;;;;;;15.77;6.75;;;20.20;37.90;;;;;;6301130;28;20143;-77
2021/03/30 09:51:40;;;;;;;15.10;9.68;;;20.30;38.30;;;;;;6300267;28;20084;-78
2021/03/30 09:54:43;;;;;;;9.40;5.95;;;20.40;37.90;;;;;;6301541;28;20048;-78
2021/03/30 09:57:45;;;;;;;11.57;5.68;;;20.50;37.60;;;;;;6300812;28;20497;-78
2021/03/30 10:00:49;;;;;;;13.15;6.55;;;20.70;36.90;;;;;;6300429;28;20063;-78
2021/03/30 10:03:51;;;;;;;15.15;6.85;;;20.70;37.10;;;;;;6301131;28;20075;-78
2021/03/30 10:06:53;;;;;;;10.57;5.65;;;20.90;37.40;;;;;;6300484;28;20100;-78
2021/03/30 10:10:00;;;;;;;12.48;6.20;;;21.20;36.20;;;;;;6300375;28;20072;-78
2021/03/30 10:13:06;;;;;;;13.55;5.95;;;21.30;35.80;;;;;;6300323;28;20395;-78
2021/03/30 10:16:10;;;;;;;11.60;5.45;;;21.40;35.80;;;;;;6300064;28;20049;-78
2021/03/30 10:19:13;;;;;;;9.48;5.82;;;21.40;35.50;;;;;;6300026;28;20116;-78
2021/03/30 10:22:23;;;;;;;11.77;4.88;;;21.70;35.80;;;;;;6300941;28;20560;-78
2021/03/30 10:25:29;;;;;;;8.95;5.28;;;22.00;35.70;;;;;;6291961;28;20056;-77
2021/03/30 10:28:33;;;;;;;15.07;6.95;;;22.20;35.50;;;;;;6300327;28;20131;-78
2021/03/30 10:31:38;;;;;;;12.13;6.22;;;22.40;35.20;;;;;;6302218;28;20119;-77
2021/03/30 10:34:41;;;;;;;7.82;4.85;;;22.50;34.60;;;;;;6303721;28;20053;-77
2021/03/30 10:37:42;;;;;;;14.35;8.35;;;22.60;34.30;;;;;;6301589;28;20099;-77
2021/03/30 10:40:44;;;;;;;17.60;9.45;;;22.90;34.30;;;;;;6301971;28;20040;-78
2021/03/30 10:43:57;;;;;;;13.57;5.20;;;23.00;33.90;;;;;;6300428;28;20044;-78
2021/03/30 10:46:58;;;;;;;10.73;5.18;;;23.10;34.00;;;;;;6294847;28;20110;-78
2021/03/30 10:50:00;;;;;;;7.10;4.13;;;23.20;34.10;;;;;;6300776;28;20472;-78
2021/03/30 10:53:02;;;;;;;9.18;4.95;;;23.30;33.60;;;;;;6300621;28;20102;-77
2021/03/30 10:56:04;;;;;;;13.45;5.20;;;23.60;33.40;;;;;;6303105;28;20048;-78
2021/03/30 10:59:10;;;;;;;9.38;4.53;;;23.80;32.90;;;;;;6306116;28;20055;-79
2021/03/30 11:02:12;;;;;;;6.85;4.10;;;23.90;32.40;;;;;;6303779;28;20059;-78
2021/03/30 11:05:15;;;;;;;8.25;4.40;;;24.10;32.70;;;;;;6304770;28;20045;-78
2021/03/30 11:08:16;;;;;;;9.02;4.47;;;24.20;32.50;;;;;;6306448;28;20364;-79
2021/03/30 11:11:18;;;;;;;9.20;3.80;;;24.30;32.30;;;;;;6306084;28;20079;-79
2021/03/30 11:14:20;;;;;;;12.23;4.18;;;24.30;31.80;;;;;;6305978;28;20044;-79
2021/03/30 11:17:22;;;;;;;9.85;4.75;;;24.50;32.30;;;;;;6304520;28;20040;-78
2021/03/30 11:20:24;;;;;;;7.22;3.88;;;24.50;32.60;;;;;;6305707;28;20040;-79
2021/03/30 11:23:26;;;;;;;6.55;3.47;;;24.70;32.60;;;;;;6308133;28;20375;-79
2021/03/30 11:26:27;;;;;;;16.08;5.22;;;24.70;32.60;;;;;;6303725;28;20105;-79
2021/03/30 11:29:38;;;;;;;9.25;4.50;;;24.80;32.30;;;;;;6306723;28;20059;-79
2021/03/30 11:32:49;;;;;;;13.73;4.70;;;24.90;31.80;;;;;;6308082;28;20109;-79
2021/03/30 11:35:52;;;;;;;8.82;5.75;;;25.00;32.50;;;;;;6300826;28;20052;-78
2021/03/30 11:38:53;;;;;;;17.85;5.05;;;25.10;32.30;;;;;;6302406;28;20059;-79
2021/03/30 11:41:55;;;;;;;9.55;4.57;;;25.20;32.80;;;;;;6304973;28;20051;-79
2021/03/30 11:44:57;;;;;;;7.05;4.88;;;25.30;32.30;;;;;;6309299;28;20044;-79
2021/03/30 11:48:00;;;;;;;10.35;5.07;;;25.40;32.80;;;;;;6299895;28;20088;-78
2021/03/30 11:51:01;;;;;;;6.32;5.18;;;25.50;32.00;;;;;;6298095;28;20518;-78
2021/03/30 11:54:03;;;;;;;7.65;4.55;;;25.40;32.10;;;;;;6297998;28;20056;-77
2021/03/30 11:57:05;;;;;;;6.47;4.78;;;25.50;32.80;;;;;;6298930;28;20044;-78
2021/03/30 12:00:09;;;;;;;9.43;4.68;;;25.60;32.60;;;;;;6302162;28;20067;-79
2021/03/30 12:03:10;;;;;;;17.13;5.45;;;25.80;31.90;;;;;;6303349;28;20059;-79
2021/03/30 12:06:12;;;;;;;8.20;5.28;;;25.90;32.50;;;;;;6304758;28;20052;-79
2021/03/30 12:09:13;;;;;;;7.45;4.60;;;26.00;31.80;;;;;;6303059;28;20573;-79
2021/03/30 12:12:14;;;;;;;9.30;4.85;;;26.10;31.90;;;;;;6299937;28;20068;-78
2021/03/30 12:15:17;;;;;;;11.40;4.75;;;26.30;32.50;;;;;;6303528;28;20083;-79
2021/03/30 12:18:19;;;;;;;11.88;4.72;;;26.30;32.10;;;;;;6303889;28;20051;-77
2021/03/30 12:21:21;;;;;;;8.13;4.65;;;26.40;31.80;;;;;;6302048;28;20071;-78
2021/03/30 12:24:22;;;;;;;8.57;4.13;;;26.40;31.80;;;;;;6306434;28;20068;-79
2021/03/30 12:27:24;;;;;;;15.35;5.40;;;26.60;31.90;;;;;;6304750;28;20498;-80
2021/03/30 12:30:26;;;;;;;13.30;5.53;;;26.80;31.60;;;;;;6303495;28;20525;-79
2021/03/30 12:33:27;;;;;;;5.15;4.05;;;26.90;31.60;;;;;;6319725;28;20040;-79
2021/03/30 12:36:29;;;;;;;11.70;5.40;;;27.00;31.00;;;;;;6323436;28;20047;-78
2021/03/30 12:39:31;;;;;;;7.68;3.70;;;27.00;31.50;;;;;;6322863;28;20044;-78
2021/03/30 12:42:33;;;;;;;12.27;4.53;;;27.10;31.00;;;;;;6322679;28;20083;-79
2021/03/30 12:45:35;;;;;;;7.68;3.95;;;27.20;30.50;;;;;;6319693;28;20484;-79
2021/03/30 12:48:37;;;;;;;10.35;5.22;;;27.20;30.60;;;;;;6306629;28;20094;-79
2021/03/30 12:51:38;;;;;;;13.55;3.92;;;27.30;30.20;;;;;;6306418;28;20080;-79
2021/03/30 12:54:39;;;;;;;8.63;3.80;;;27.30;30.00;;;;;;6304503;28;20048;-79
2021/03/30 12:57:41;;;;;;;7.55;4.45;;;27.40;30.20;;;;;;6301908;28;20068;-77
2021/03/30 13:00:43;;;;;;;8.80;4.53;;;27.50;29.90;;;;;;6303731;28;20047;-79
2021/03/30 13:03:44;;;;;;;8.95;3.85;;;27.40;30.00;;;;;;6302588;28;20532;-79
2021/03/30 13:06:46;;;;;;;8.05;3.42;;;27.20;29.80;;;;;;6303301;28;20048;-79
2021/03/30 13:09:48;;;;;;;8.68;4.28;;;27.40;29.80;;;;;;6301503;28;20044;-78
2021/03/30 13:12:49;;;;;;;5.93;4.15;;;27.40;29.00;;;;;;6301865;28;20094;-78
2021/03/30 13:15:51;;;;;;;4.60;3.47;;;27.50;27.60;;;;;;6304947;28;20070;-79
2021/03/30 13:18:53;;;;;;;5.80;3.65;;;27.40;28.00;;;;;;6309720;28;20131;-78
2021/03/30 13:21:54;;;;;;;9.75;3.30;;;27.50;28.50;;;;;;6309398;28;20065;-79
2021/03/30 13:24:59;;;;;;;6.18;3.63;;;27.50;28.40;;;;;;6305945;28;20040;-78
2021/03/30 13:28:01;;;;;;;11.15;4.15;;;27.50;27.40;;;;;;6304810;28;20056;-78
2021/03/30 13:31:03;;;;;;;3.92;3.25;;;27.30;28.00;;;;;;6302453;28;20063;-79
2021/03/30 13:34:05;;;;;;;4.55;3.53;;;27.30;28.10;;;;;;6307161;28;20090;-78
2021/03/30 13:37:08;;;;;;;4.13;3.00;;;27.50;28.30;;;;;;6308745;28;20056;-78
2021/03/30 13:40:10;;;;;;;7.70;3.65;;;27.70;29.20;;;;;;6307807;28;20072;-78
2021/03/30 13:43:12;;;;;;;4.65;3.42;;;27.70;28.70;;;;;;6304952;28;20048;-78
2021/03/30 13:46:14;;;;;;;8.52;3.53;;;27.70;26.50;;;;;;6304186;28;20529;-78
2021/03/30 13:49:16;;;;;;;9.45;3.60;;;27.50;27.20;;;;;;6307152;28;20112;-78
2021/03/30 13:52:18;;;;;;;7.38;2.75;;;27.50;28.10;;;;;;6307124;28;20075;-79
2021/03/30 13:55:19;;;;;;;4.13;2.28;;;27.50;27.00;;;;;;6306323;28;20049;-79
2021/03/30 13:58:21;;;;;;;2.72;2.33;;;27.50;27.10;;;;;;6306788;28;20052;-79
2021/03/30 14:01:23;;;;;;;3.97;2.42;;;27.40;27.20;;;;;;6305124;28;20041;-78
2021/03/30 14:04:25;;;;;;;7.43;3.00;;;27.30;26.40;;;;;;6305053;28;20613;-79
2021/03/30 14:07:26;;;;;;;5.82;2.78;;;27.00;24.90;;;;;;6305046;28;20040;-78
2021/03/30 14:10:28;;;;;;;4.93;2.75;;;26.80;25.20;;;;;;6301671;28;20080;-78
2021/03/30 14:13:32;;;;;;;4.63;2.58;;;26.50;24.80;;;;;;6301387;28;20120;-78
2021/03/30 14:16:38;;;;;;;12.32;3.22;;;26.30;24.70;;;;;;6300851;28;20049;-78
2021/03/30 14:19:42;;;;;;;2.78;1.80;;;26.00;25.00;;;;;;6304854;28;20051;-78
2021/03/30 14:22:44;;;;;;;2.45;2.25;;;26.00;25.40;;;;;;6300971;28;20085;-78
2021/03/30 14:25:49;;;;;;;7.53;1.90;;;26.10;25.40;;;;;;6299778;28;20127;-78
2021/03/30 14:28:51;;;;;;;3.97;2.10;;;26.40;25.40;;;;;;6297917;28;20131;-78
2021/03/30 14:31:53;;;;;;;6.32;2.72;;;26.50;25.50;;;;;;6298302;28;20110;-78
2021/03/30 14:34:56;;;;;;;4.65;2.55;;;26.70;25.10;;;;;;6299255;28;20076;-78
2021/03/30 14:37:58;;;;;;;7.75;2.75;;;26.60;24.20;;;;;;6298980;28;20518;-78
2021/03/30 14:41:00;;;;;;;6.10;1.73;;;26.30;24.20;;;;;;6298720;28;20123;-78
2021/03/30 14:44:10;;;;;;;3.92;2.03;;;26.20;24.40;;;;;;6298402;28;20075;-78
2021/03/30 14:50:36;;;;;;;3.88;2.05;;;26.00;24.40;;;;;;6298368;28;20131;-78
2021/03/30 14:54:07;;;;;;;11.07;2.00;;;26.10;24.60;;;;;;6298898;28;20048;-77
2021/03/30 14:57:12;;;;;;;2.17;1.50;;;26.20;24.10;;;;;;6298351;28;20119;-78
2021/03/30 15:00:20;;;;;;;3.20;2.17;;;26.20;23.80;;;;;;6298927;28;20044;-78
2021/03/30 15:03:27;;;;;;;7.72;2.38;;;26.20;24.00;;;;;;6299742;28;20464;-78
2021/03/30 15:06:28;;;;;;;2.67;2.22;;;26.30;24.20;;;;;;6304940;28;20512;-76
2021/03/30 15:09:29;;;;;;;4.28;1.90;;;26.00;24.10;;;;;;6301771;28;20058;-79
2021/03/30 15:12:31;;;;;;;5.60;1.52;;;25.80;24.30;;;;;;6305221;28;20045;-78
2021/03/30 15:15:37;;;;;;;3.15;1.77;;;25.70;24.30;;;;;;6300578;28;20128;-78
2021/03/30 15:18:39;;;;;;;5.05;1.50;;;25.50;24.20;;;;;;6299354;28;20456;-78
2021/03/30 15:21:40;;;;;;;5.40;1.95;;;25.30;24.40;;;;;;6296929;28;20048;-77
2021/03/30 15:24:42;;;;;;;2.72;1.65;;;25.10;23.90;;;;;;6296407;28;20044;-77
2021/03/30 15:27:43;;;;;;;4.28;1.60;;;24.90;24.20;;;;;;6296388;28;20574;-78
2021/03/30 15:30:46;;;;;;;5.18;1.90;;;24.70;24.50;;;;;;6292854;28;20075;-78
2021/03/30 15:33:48;;;;;;;2.53;1.92;;;24.50;24.10;;;;;;6295824;28;20570;-78
2021/03/30 15:36:49;;;;;;;3.58;2.47;;;24.40;24.40;;;;;;6296041;28;20048;-78
2021/03/30 15:39:51;;;;;;;2.85;1.48;;;24.30;24.20;;;;;;6295970;28;20044;-77
2021/03/30 15:42:52;;;;;;;2.65;1.75;;;24.20;23.70;;;;;;6296314;28;20127;-78
2021/03/30 15:46:04;;;;;;;4.40;1.90;;;24.10;24.20;;;;;;6295914;28;20068;-77
2021/03/30 15:49:06;;;;;;;1.75;1.40;;;24.00;23.90;;;;;;6296078;28;20047;-77
2021/03/30 15:52:08;;;;;;;7.65;2.70;;;23.90;23.90;;;;;;6295677;28;20048;-77
2021/03/30 15:55:13;;;;;;;3.28;2.05;;;23.80;24.20;;;;;;6295758;28;20573;-77
2021/03/30 15:58:14;;;;;;;4.38;3.05;;;23.70;24.30;;;;;;6296225;28;20066;-78
2021/03/30 16:01:15;;;;;;;9.63;3.05;;;23.60;24.50;;;;;;6295589;28;20044;-77